Time;durP1;ratioP1;P1;durP2;ratioP2;P2;SDS_P1;SDS_P2;PMS_P1;PMS_P2;Temp;Humidity;BMP_temperature;BMP_pressure;BME280_temperature;BME280_humidity;BME280_pressure;Samples;Min_cycle;Max_cycle;Signal;HPM_P1;HPM_P2
2024/03/25 00:00:31;;;;;;;2.33;0.90;;;22.30;69.20;;;;;;5004613;28;20226;-74
2024/03/25 00:02:58;;;;;;;1.20;0.90;;;22.20;69.20;;;;;;5004394;28;20672;-70
2024/03/25 00:05:25;;;;;;;1.73;1.00;;;22.20;69.50;;;;;;5004394;28;20464;-70
2024/03/25 00:07:52;;;;;;;1.57;0.90;;;22.20;69.50;;;;;;5001065;28;20576;-75
2024/03/25 00:10:20;;;;;;;1.10;0.80;;;22.20;69.60;;;;;;5004532;28;20449;-67
2024/03/25 00:12:47;;;;;;;1.67;0.90;;;22.20;69.70;;;;;;5005214;28;20602;-68
2024/03/25 00:15:13;;;;;;;1.30;0.90;;;22.10;69.60;;;;;;5007260;28;20497;-72
2024/03/25 00:17:42;;;;;;;0.87;0.60;;;22.10;69.70;;;;;;5005016;28;20467;-72
2024/03/25 00:20:09;;;;;;;1.30;1.13;;;22.10;69.70;;;;;;5007294;28;20995;-68
2024/03/25 00:22:36;;;;;;;1.87;0.80;;;22.00;69.80;;;;;;5004713;28;20486;-74
2024/03/25 00:25:02;;;;;;;1.23;0.83;;;22.00;70.00;;;;;;5008297;28;20490;-73
2024/03/25 00:27:30;;;;;;;1.10;0.80;;;22.00;70.30;;;;;;5007243;28;20973;-71
2024/03/25 00:29:55;;;;;;;1.27;0.80;;;22.00;70.30;;;;;;5010547;28;20923;-68
2024/03/25 00:32:22;;;;;;;2.40;0.83;;;22.00;70.40;;;;;;5008864;28;20456;-70
2024/03/25 00:34:49;;;;;;;1.50;1.00;;;21.90;70.30;;;;;;5009395;28;20204;-71
2024/03/25 00:37:16;;;;;;;1.20;0.90;;;21.90;70.40;;;;;;5005578;28;20577;-71
2024/03/25 00:39:42;;;;;;;1.40;0.77;;;21.90;70.50;;;;;;5004356;28;20459;-72
2024/03/25 00:42:08;;;;;;;3.13;1.20;;;21.90;70.50;;;;;;5000328;28;20897;-72
2024/03/25 00:44:34;;;;;;;1.40;1.00;;;21.80;70.60;;;;;;5007935;28;20280;-73
2024/03/25 00:47:01;;;;;;;1.07;0.83;;;21.80;70.90;;;;;;5005766;28;20461;-70
2024/03/25 00:49:26;;;;;;;1.63;0.90;;;21.80;70.90;;;;;;5004271;28;20196;-68
2024/03/25 00:51:54;;;;;;;1.30;0.97;;;21.80;70.90;;;;;;4997953;28;20537;-68
2024/03/25 00:54:20;;;;;;;0.90;0.70;;;21.80;71.00;;;;;;5007725;28;20198;-68
2024/03/25 00:56:47;;;;;;;1.10;0.73;;;21.80;71.10;;;;;;5009350;28;20457;-71
2024/03/25 00:59:13;;;;;;;2.07;1.20;;;21.70;71.00;;;;;;5011553;28;20208;-69
2024/03/25 01:01:39;;;;;;;1.13;0.80;;;21.70;71.10;;;;;;5004408;28;21259;-72
2024/03/25 01:04:05;;;;;;;1.40;1.00;;;21.60;71.10;;;;;;5005933;28;20563;-73
2024/03/25 01:06:32;;;;;;;1.23;0.80;;;21.60;71.20;;;;;;5006308;28;20447;-73
2024/03/25 01:08:59;;;;;;;2.13;1.07;;;21.60;71.50;;;;;;5006744;28;20200;-72
2024/03/25 01:11:25;;;;;;;0.90;0.70;;;21.60;71.70;;;;;;5005630;28;20814;-70
2024/03/25 01:13:51;;;;;;;1.70;0.90;;;21.50;71.70;;;;;;5006216;28;20461;-67
2024/03/25 01:16:18;;;;;;;1.10;0.70;;;21.60;71.90;;;;;;5005835;28;20446;-73
2024/03/25 01:18:44;;;;;;;1.10;0.80;;;21.50;71.80;;;;;;5005326;28;20199;-72
2024/03/25 01:21:10;;;;;;;1.10;0.70;;;21.50;71.80;;;;;;5007586;28;20980;-72
2024/03/25 01:23:36;;;;;;;1.40;0.80;;;21.50;71.80;;;;;;5003963;28;20219;-73
2024/03/25 01:26:04;;;;;;;1.00;0.77;;;21.50;71.90;;;;;;5008887;28;21158;-73
2024/03/25 01:28:30;;;;;;;0.97;0.73;;;21.50;72.00;;;;;;5006072;28;20690;-72
2024/03/25 01:30:57;;;;;;;1.10;0.80;;;21.40;72.00;;;;;;5006364;28;20446;-70
2024/03/25 01:33:22;;;;;;;0.90;0.70;;;21.40;72.10;;;;;;5008919;28;20242;-72
2024/03/25 01:35:50;;;;;;;1.00;0.70;;;21.40;72.30;;;;;;5004263;28;20447;-70
2024/03/25 01:38:15;;;;;;;1.07;0.90;;;21.40;72.40;;;;;;5006513;28;20684;-69
2024/03/25 01:40:42;;;;;;;1.00;0.80;;;21.40;72.30;;;;;;5009371;28;20470;-71
2024/03/25 01:43:09;;;;;;;2.05;1.08;;;21.40;72.50;;;;;;5001121;28;20231;-73
2024/03/25 01:45:37;;;;;;;0.90;0.70;;;21.30;72.40;;;;;;5004390;28;20200;-73
2024/03/25 01:48:06;;;;;;;1.10;0.80;;;21.30;72.40;;;;;;5009546;28;20206;-70
2024/03/25 01:50:36;;;;;;;1.63;1.02;;;21.30;72.60;;;;;;5009016;28;20579;-69
2024/03/25 01:53:02;;;;;;;2.13;0.80;;;21.30;72.50;;;;;;5003041;28;20208;-73
2024/03/25 01:55:31;;;;;;;1.13;0.90;;;21.30;72.80;;;;;;5007610;28;20556;-68
2024/03/25 01:57:57;;;;;;;1.45;0.80;;;21.20;72.90;;;;;;5005544;28;20914;-73
2024/03/25 02:00:27;;;;;;;1.23;0.80;;;21.20;73.10;;;;;;5003331;28;20199;-71
2024/03/25 02:02:54;;;;;;;1.80;0.80;;;21.20;73.10;;;;;;5007714;28;20192;-71
2024/03/25 02:05:21;;;;;;;1.00;0.70;;;21.20;73.00;;;;;;5005219;28;20545;-72
2024/03/25 02:07:49;;;;;;;1.05;0.80;;;21.20;73.10;;;;;;5001536;28;20195;-70
2024/03/25 02:10:16;;;;;;;1.17;0.80;;;21.20;73.20;;;;;;5003106;28;20575;-73
2024/03/25 02:12:43;;;;;;;1.40;1.27;;;21.10;73.10;;;;;;5002762;28;20223;-71
2024/03/25 02:15:10;;;;;;;2.42;0.73;;;21.10;73.30;;;;;;5004497;28;20446;-68
2024/03/25 02:17:37;;;;;;;1.20;0.88;;;21.10;73.40;;;;;;4999961;28;20195;-71
2024/03/25 02:20:07;;;;;;;0.90;0.70;;;21.00;73.50;;;;;;5007958;28;20235;-71
2024/03/25 02:22:33;;;;;;;1.00;0.75;;;21.10;73.80;;;;;;5003836;28;20204;-71
2024/03/25 02:25:01;;;;;;;1.20;0.88;;;21.10;73.80;;;;;;5004814;28;20216;-73
2024/03/25 02:27:30;;;;;;;0.90;0.70;;;21.10;73.90;;;;;;5005170;28;20201;-69
2024/03/25 02:30:03;;;;;;;1.23;0.85;;;21.00;73.70;;;;;;5005525;28;20211;-74
2024/03/25 02:32:29;;;;;;;1.15;0.82;;;21.00;73.50;;;;;;5006208;28;20199;-74
2024/03/25 02:34:57;;;;;;;1.38;0.93;;;21.00;73.90;;;;;;5006078;28;20187;-70
2024/03/25 02:37:23;;;;;;;1.35;0.82;;;20.90;74.00;;;;;;5005305;28;22229;-74
2024/03/25 02:39:50;;;;;;;1.20;0.90;;;20.90;74.10;;;;;;5006094;28;20215;-68
2024/03/25 02:42:16;;;;;;;0.90;0.70;;;20.90;74.40;;;;;;5008827;28;20462;-73
2024/03/25 02:44:44;;;;;;;1.10;0.80;;;20.90;74.40;;;;;;5007786;28;20246;-69
2024/03/25 02:47:11;;;;;;;1.30;1.02;;;20.90;74.40;;;;;;5003080;28;20203;-73
2024/03/25 02:49:38;;;;;;;1.35;1.00;;;20.90;74.40;;;;;;5006573;28;20202;-72
2024/03/25 02:52:04;;;;;;;1.23;0.80;;;20.90;74.40;;;;;;5009178;28;20207;-72
2024/03/25 02:54:31;;;;;;;1.38;1.10;;;20.90;74.50;;;;;;5008424;28;20196;-68
2024/03/25 02:56:56;;;;;;;1.13;0.70;;;20.80;74.50;;;;;;5008218;28;21097;-71
2024/03/25 02:59:23;;;;;;;1.20;0.70;;;20.80;74.60;;;;;;5006925;28;20207;-69
2024/03/25 03:01:50;;;;;;;2.58;0.70;;;20.80;74.80;;;;;;5006087;28;20199;-68
2024/03/25 03:04:17;;;;;;;1.00;0.77;;;20.80;74.90;;;;;;5008773;28;20992;-72
2024/03/25 03:06:43;;;;;;;2.03;0.90;;;20.70;75.00;;;;;;5006774;28;20215;-68
2024/03/25 03:09:10;;;;;;;1.90;0.80;;;20.80;75.10;;;;;;5006656;28;20594;-74
2024/03/25 03:11:35;;;;;;;1.10;0.60;;;20.80;75.10;;;;;;5010190;28;20675;-73
2024/03/25 03:14:02;;;;;;;1.10;0.70;;;20.80;75.10;;;;;;5008266;28;20286;-71
2024/03/25 03:16:29;;;;;;;0.90;0.70;;;20.70;75.00;;;;;;5002068;28;20615;-70
2024/03/25 03:18:57;;;;;;;1.20;0.90;;;20.70;75.10;;;;;;5006750;28;20683;-72
2024/03/25 03:21:22;;;;;;;1.23;0.90;;;20.70;75.10;;;;;;5001610;28;20224;-72
2024/03/25 03:23:49;;;;;;;1.00;0.70;;;20.70;75.20;;;;;;4999930;28;20223;-72
2024/03/25 03:26:15;;;;;;;1.20;0.70;;;20.60;75.20;;;;;;5008698;28;20664;-72
2024/03/25 03:28:42;;;;;;;1.83;0.80;;;20.60;75.30;;;;;;5004422;28;20213;-74
2024/03/25 03:31:07;;;;;;;1.63;0.90;;;20.60;75.30;;;;;;5005091;28;20497;-72
2024/03/25 03:33:34;;;;;;;1.47;1.00;;;20.70;75.30;;;;;;5011054;28;20203;-75
2024/03/25 03:36:02;;;;;;;1.33;0.90;;;20.70;75.00;;;;;;5010151;28;20220;-74
2024/03/25 03:38:28;;;;;;;1.13;0.80;;;20.60;75.10;;;;;;5005801;28;21047;-72
2024/03/25 03:40:58;;;;;;;1.60;0.70;;;20.60;75.10;;;;;;5010728;28;20221;-76
2024/03/25 03:43:24;;;;;;;1.05;0.82;;;20.60;75.20;;;;;;5010365;28;20195;-69
2024/03/25 03:45:50;;;;;;;1.13;0.82;;;20.60;75.20;;;;;;5008291;28;20212;-73
2024/03/25 03:48:17;;;;;;;1.40;0.80;;;20.60;75.30;;;;;;5010472;28;21123;-73
2024/03/25 03:50:43;;;;;;;1.60;0.88;;;20.60;75.40;;;;;;5006390;28;20203;-75
2024/03/25 03:53:12;;;;;;;1.70;0.77;;;20.60;75.50;;;;;;5006685;28;20192;-75
2024/03/25 03:55:37;;;;;;;1.02;0.80;;;20.60;75.40;;;;;;5009290;28;20759;-77
2024/03/25 03:58:06;;;;;;;1.20;0.80;;;20.60;75.40;;;;;;5011551;28;20210;-74
2024/03/25 04:00:33;;;;;;;1.33;1.00;;;20.60;75.30;;;;;;5006435;28;20649;-74
2024/03/25 04:03:00;;;;;;;1.00;0.80;;;20.60;75.30;;;;;;5012145;28;20203;-74
2024/03/25 04:05:29;;;;;;;1.30;0.82;;;20.50;75.30;;;;;;5010140;28;21016;-72
2024/03/25 04:07:56;;;;;;;1.20;0.68;;;20.50;75.30;;;;;;5007398;28;20595;-71
2024/03/25 04:10:24;;;;;;;1.17;0.75;;;20.50;75.30;;;;;;5008021;28;20195;-72
2024/03/25 04:12:51;;;;;;;2.03;0.88;;;20.50;75.60;;;;;;5011860;28;20207;-71
2024/03/25 04:15:17;;;;;;;1.20;0.77;;;20.50;75.60;;;;;;5005922;28;20200;-76
2024/03/25 04:17:44;;;;;;;1.65;0.70;;;20.50;75.50;;;;;;5008883;28;20322;-73
2024/03/25 04:20:11;;;;;;;1.10;0.80;;;20.50;75.40;;;;;;5010971;28;20267;-75
2024/03/25 04:22:38;;;;;;;1.30;0.80;;;20.50;75.40;;;;;;5013376;28;20200;-70
2024/03/25 04:25:04;;;;;;;0.90;0.70;;;20.50;75.40;;;;;;5010056;28;20265;-74
2024/03/25 04:27:32;;;;;;;1.75;0.90;;;20.50;75.50;;;;;;5009977;28;20200;-75
2024/03/25 04:29:58;;;;;;;1.20;0.80;;;20.50;75.60;;;;;;5012312;28;20203;-74
2024/03/25 04:32:25;;;;;;;1.50;0.80;;;20.40;75.50;;;;;;5005963;28;20198;-72
2024/03/25 04:34:50;;;;;;;1.00;0.90;;;20.40;75.60;;;;;;5005762;28;20195;-71
